Warning: Javascript must be enabled to use all the features on this page!


Page Loading - Please Wait...

Click to hideNews Bulletins

Peak Streamflow for the Nation

USGS 01484100 BEAVERDAM BRANCH AT HOUSTON, DE

Kent County, Delaware
Hydrologic Unit Code 02040207
Latitude  38°54'20.8", Longitude  75°30'45.9" NAD83
Drainage area 3.02  square miles
Gage datum 34.87 feet above NAVD88
Output formats
Table
Graph
Tab-separated file
peakfq (watstore) format
Reselect output format
Water
Year
Date Gage
Height
(feet)
Stream-
flow
(cfs)
1958 1958-08-25 4.21 79.0
1959 1959-07-15 3.58 45.0
1960 1960-09-12 5.55 176
1961 1961-02-19 3.82 60.0
1962 1962-01-07 3.94 63.0
1963 1963-03-12 4.13 80.0
1964 1964-02-19 3.58 45.0
1965 1965-08-26 2.76 16.0
1966 1966-06-17 3.10 26.0
1967 1967-08-04 4.17 76.0
1968 1968-01-14 3.28 37.0
1969 1969-09-09 3.89 60.0
1970 1970-07-10 3.86 59.0
1971 1971-02-23 3.32 35.0
1972 1972-06-30 3.67 50.0
1973 1972-12-22 3.68 55.0
1974 1974-06-02 3.14 31.0
1975 1975-07-13 4.66 115
1976 1976-01-01 3.45 45.0
1977 1976-10-21 2.80 18.0
1978 1978-03-27 3.73 57.0
1979 1979-02-26 4.59 104
1980 1980-04-29 3.19 38.0
1981 1980-10-25 3.28 43.0
1982 1982-04-27 2.92 16.0
1983 1983-04-16 3.39 50.0
1984 1984-05-30 4.60 149
1985 1985-09-27 3.51 41.0
1986 1986-01-26 3.00 18.0
1987 1986-12-25 3.90 62.0
1988 1988-07-23 3.26 31.0
1989 1989-03-24 3.59 44.0
1990 1990-05-29 3.84 60.0
1991 1991-01-12 3.31 32.0
1992 1992-08-17 3.47 39.0
1993 1993-03-14 3.78 54.0
1994 1994-03-03 4.80 119
1995 1995-07-02 3.51 47.0
1996 1996-04-02 3.66 36.0
1997 1997-08-21 5.47 128
1998 1998-01-28 4.28 81.0
1999 1999-09-16 3.84 57.0
2000 2000-03-22 3.95 63.0
2001 2001-06-17 4.47 89.0
2002 2002-09-01 3.46 38.0
2003 2003-06-08 3.96 64.0
2004 2003-11-06 3.81 55.0
2005 2005-05-20 3.93 62.0
2006 2006-07-06 3.63 46.0
2007 2007-04-16 4.26 80.0
2008 2008-06-05 3.43 36.0
2009 2009-08-23 5.03 112
2010 2009-12-09 4.60 163
2011 2011-08-28 5.57 363
2012 2012-05-23 3.56 45.0
2013 2012-10-30 4.43 136
2014 2013-10-11 4.181 57.0
2015 2015-01-24 3.71 55.0
2016 2016-09-30 4.98 143
2017 2017-08-12 4.89 129
2018 2018-05-28 4.26 62.4
2019 2018-11-25 4.34 67.8
2020 2020-09-04 5.281 160
?
  Peak Gage-Height Qualification Codes.